< < Back
Terminal Aerodrome Forecast


Current Version              Previous Versions:   1  2  3  4  5  6  7  8  9  

Terminal Aerodrome Forecast

821
FTUS42 KFFC 300100 AAA
TAFCSG
TAF AMD
KCSG 300143Z 3002/3024 VRB03KT P6SM BKN080
     FM301500 18006KT P6SM SCT025 BKN050 PROB30 3017/3023 6SM TSRA
      BKN045CB=



Latest METAR

477
SAUS70 KWBC 300200
MTRCSG
METAR KCSG 300151Z 23005KT 10SM OVC095 29/21 A3005 RMK AO2 SLP170
T02940211


USA.gov is the U.S. government's official web portal to all federal, state and local government web resources and services.